< < Back
Terminal Aerodrome Forecast


Current Version              Previous Versions:   1  2  3  4  5  6  7  8  9  

Terminal Aerodrome Forecast

377
FTUS42 KMLB 272337
TAFDAB
TAF
KDAB 272337Z 2800/2824 01006KT P6SM SCT010 BKN100 OVC200
     FM280300 VRB03KT P6SM -RA SCT015 BKN060 OVC120
     FM281400 07006KT P6SM VCSH SCT025 OVC040
     FM281800 09009KT P6SM VCTS SCT025CB BKN040=

Latest METAR

365
SAUS80 KWBC 280500 RRB
MTRDAB
METAR KDAB 280453Z 03006KT 9SM FEW022 BKN110 OVC250 21/20 A2986 RMK AO2
RAE07 SLP110 P0000 T02110200 402830211


USA.gov is the U.S. government's official web portal to all federal, state and local government web resources and services.